Time;durP1;ratioP1;P1;durP2;ratioP2;P2;SDS_P1;SDS_P2;PMS_P1;PMS_P2;Temp;Humidity;BMP_temperature;BMP_pressure;BME280_temperature;BME280_humidity;BME280_pressure;Samples;Min_cycle;Max_cycle;Signal;HPM_P1;HPM_P2
2021/01/11 00:01:36;;;;;;;;;;;;;;;18.42;34.15;100894.59;5030696;28;19932;-60
2021/01/11 00:04:02;;;;;;;;;;;;;;;18.44;34.06;100892.41;5030507;28;20398;-60
2021/01/11 00:06:34;;;;;;;;;;;;;;;18.43;34.20;100896.25;5024230;28;19926;-60
2021/01/11 00:09:00;;;;;;;;;;;;;;;18.43;34.05;100891.56;5030790;28;19979;-60
2021/01/11 00:11:26;;;;;;;;;;;;;;;18.41;34.03;100887.41;5031486;28;19929;-60
2021/01/11 00:13:53;;;;;;;;;;;;;;;18.37;34.25;100895.34;5031021;28;19932;-60
2021/01/11 00:16:19;;;;;;;;;;;;;;;18.37;34.27;100891.75;5030742;28;19947;-60
2021/01/11 00:18:46;;;;;;;;;;;;;;;18.35;34.21;100886.50;5030792;28;19925;-60
2021/01/11 00:21:15;;;;;;;;;;;;;;;18.38;34.24;100876.84;5026870;28;20370;-59
2021/01/11 00:23:42;;;;;;;;;;;;;;;18.37;34.18;100875.19;5025699;28;20011;-60
2021/01/11 00:26:09;;;;;;;;;;;;;;;18.38;34.11;100880.44;5029172;28;20024;-60
2021/01/11 00:28:35;;;;;;;;;;;;;;;18.39;33.93;100879.38;5030842;28;19925;-60
2021/01/11 00:31:02;;;;;;;;;;;;;;;18.41;34.10;100876.34;5031127;28;19979;-60
2021/01/11 00:33:28;;;;;;;;;;;;;;;18.41;34.02;100885.47;5030637;28;19929;-60
2021/01/11 00:35:56;;;;;;;;;;;;;;;18.39;33.96;100879.38;5026585;28;20458;-60
2021/01/11 00:38:22;;;;;;;;;;;;;;;18.37;33.94;100876.00;5025167;28;19971;-60
2021/01/11 00:40:48;;;;;;;;;;;;;;;18.36;33.85;100868.84;5030478;28;19925;-60
2021/01/11 00:43:15;;;;;;;;;;;;;;;18.36;33.92;100868.03;5029136;28;20322;-60
2021/01/11 00:45:41;;;;;;;;;;;;;;;18.37;33.88;100869.66;5027941;28;19925;-60
2021/01/11 00:48:07;;;;;;;;;;;;;;;18.38;34.02;100880.44;5046220;28;19936;-60
2021/01/11 00:50:33;;;;;;;;;;;;;;;18.38;33.88;100882.38;5028124;28;19925;-62
2021/01/11 00:53:00;;;;;;;;;;;;;;;18.38;33.88;100865.81;5030572;28;19925;-60
2021/01/11 00:55:26;;;;;;;;;;;;;;;18.38;34.03;100865.81;5024226;28;19925;-60
2021/01/11 00:58:01;;;;;;;;;;;;;;;18.36;33.97;100865.25;5029918;28;19975;-60
2021/01/11 01:00:32;;;;;;;;;;;;;;;18.30;33.92;100856.06;5029761;28;19932;-60
2021/01/11 01:03:08;;;;;;;;;;;;;;;18.26;33.82;100852.13;5029745;28;19968;-60
2021/01/11 01:05:35;;;;;;;;;;;;;;;18.25;34.05;100852.38;5030659;28;19975;-61
2021/01/11 01:08:02;;;;;;;;;;;;;;;18.24;33.94;100853.47;5023956;28;19993;-60
2021/01/11 01:10:28;;;;;;;;;;;;;;;18.23;34.17;100868.34;5030049;28;19971;-60
2021/01/11 01:12:54;;;;;;;;;;;;;;;18.24;34.12;100861.75;5030505;28;19925;-60
2021/01/11 01:15:21;;;;;;;;;;;;;;;18.21;34.10;100853.97;5027407;28;19964;-59
2021/01/11 01:17:47;;;;;;;;;;;;;;;18.21;34.04;100859.47;5029608;28;19929;-60
2021/01/11 01:20:16;;;;;;;;;;;;;;;18.22;33.95;100864.75;5013962;28;20294;-59
2021/01/11 01:22:46;;;;;;;;;;;;;;;18.22;34.19;100861.16;5024478;28;19926;-59
2021/01/11 01:25:12;;;;;;;;;;;;;;;18.23;34.02;100876.63;4998009;28;19932;-60
2021/01/11 01:27:38;;;;;;;;;;;;;;;18.22;33.95;100866.66;5097310;22;20409;-67
2021/01/11 01:30:05;;;;;;;;;;;;;;;18.23;34.37;100862.81;5090463;28;19964;-67
2021/01/11 01:32:32;;;;;;;;;;;;;;;18.27;34.02;100867.59;5074401;28;19931;-66
2021/01/11 01:34:59;;;;;;;;;;;;;;;18.30;33.95;100871.78;5070709;28;19928;-67
2021/01/11 01:37:25;;;;;;;;;;;;;;;18.29;33.77;100868.19;5084507;28;19935;-67
2021/01/11 01:39:51;;;;;;;;;;;;;;;18.29;33.81;100872.88;5072464;28;20436;-66
2021/01/11 01:42:17;;;;;;;;;;;;;;;18.28;33.84;100883.06;5065034;28;19944;-66
2021/01/11 01:44:43;;;;;;;;;;;;;;;18.26;33.75;100876.13;5046115;28;19979;-66
2021/01/11 01:47:10;;;;;;;;;;;;;;;18.23;33.94;100877.47;5052955;28;20011;-66
2021/01/11 01:49:36;;;;;;;;;;;;;;;18.23;33.76;100876.63;5056615;28;19932;-65
2021/01/11 01:52:03;;;;;;;;;;;;;;;18.23;33.80;100879.38;5072919;28;20426;-66
2021/01/11 01:54:29;;;;;;;;;;;;;;;18.25;33.66;100871.69;5063692;28;19947;-65
2021/01/11 01:56:56;;;;;;;;;;;;;;;18.23;33.69;100873.84;5089561;28;19934;-65
2021/01/11 01:59:22;;;;;;;;;;;;;;;18.21;33.87;100863.06;5061003;28;19936;-66
2021/01/11 02:01:52;;;;;;;;;;;;;;;18.19;33.85;100872.69;5076258;28;20360;-66
2021/01/11 02:04:18;;;;;;;;;;;;;;;18.15;33.83;100872.34;5052846;28;19928;-65
2021/01/11 02:06:44;;;;;;;;;;;;;;;18.12;33.87;100877.53;5075204;28;20306;-65
2021/01/11 02:09:19;;;;;;;;;;;;;;;18.07;33.76;100876.34;5068251;28;19925;-66
2021/01/11 02:11:48;;;;;;;;;;;;;;;18.06;33.76;100871.06;5066162;28;20284;-64
2021/01/11 02:14:21;;;;;;;;;;;;;;;18.03;33.86;100869.66;5052752;28;19924;-65
2021/01/11 02:17:16;;;;;;;;;;;;;;;18.03;33.76;100872.41;5051589;28;20031;-65
2021/01/11 02:19:55;;;;;;;;;;;;;;;18.02;33.78;100867.97;5047964;28;19925;-66
2021/01/11 02:22:24;;;;;;;;;;;;;;;18.03;33.86;100868.81;5072216;28;20003;-65
2021/01/11 02:24:53;;;;;;;;;;;;;;;18.03;33.88;100879.84;5065246;28;19925;-65
2021/01/11 02:27:22;;;;;;;;;;;;;;;18.04;33.74;100874.09;5058902;28;20533;-65
2021/01/11 02:30:08;;;;;;;;;;;;;;;18.04;33.91;100878.75;5035776;28;19929;-65
2021/01/11 02:32:37;;;;;;;;;;;;;;;18.07;33.69;100881.03;5083393;28;19929;-65
2021/01/11 02:35:05;;;;;;;;;;;;;;;18.10;33.65;100875.00;5071916;28;19928;-66
2021/01/11 02:37:31;;;;;;;;;;;;;;;18.11;33.80;100882.19;5070776;28;20302;-66
2021/01/11 02:39:57;;;;;;;;;;;;;;;18.13;33.62;100873.69;5072840;28;20483;-65
2021/01/11 02:42:24;;;;;;;;;;;;;;;18.11;33.68;100875.84;5071719;28;19928;-65
2021/01/11 02:44:50;;;;;;;;;;;;;;;18.09;33.68;100863.13;5071556;28;19990;-65
2021/01/11 02:47:20;;;;;;;;;;;;;;;18.10;33.80;100869.50;5071212;28;19925;-65
2021/01/11 02:49:47;;;;;;;;;;;;;;;18.07;33.76;100865.31;5053617;28;19925;-64
2021/01/11 02:52:18;;;;;;;;;;;;;;;18.00;33.15;100855.53;5051650;28;19925;-64
2021/01/11 02:54:49;;;;;;;;;;;;;;;17.95;32.88;100859.06;5044634;28;20360;-64
2021/01/11 02:57:31;;;;;;;;;;;;;;;17.90;33.41;100858.97;5069920;28;20279;-65
2021/01/11 03:00:03;;;;;;;;;;;;;;;17.86;33.55;100849.50;5071312;28;19924;-65
2021/01/11 03:02:31;;;;;;;;;;;;;;;17.81;33.56;100854.09;5071756;28;19960;-67
2021/01/11 03:04:57;;;;;;;;;;;;;;;17.76;33.60;100841.03;5071406;28;20351;-66
2021/01/11 03:07:24;;;;;;;;;;;;;;;17.74;33.63;100840.44;5063861;28;20414;-65
2021/01/11 03:09:50;;;;;;;;;;;;;;;17.70;33.40;100842.88;5071378;28;20015;-65
2021/01/11 03:12:16;;;;;;;;;;;;;;;17.68;33.73;100833.16;5056643;28;19982;-65
2021/01/11 03:14:42;;;;;;;;;;;;;;;17.66;33.55;100827.94;5059938;28;19925;-65
2021/01/11 03:17:09;;;;;;;;;;;;;;;17.64;33.47;100820.97;5072156;28;19960;-64
2021/01/11 03:19:35;;;;;;;;;;;;;;;17.63;33.47;100813.78;5070279;28;20017;-65
2021/01/11 03:22:02;;;;;;;;;;;;;;;17.59;33.69;100812.59;5083478;28;20011;-65
2021/01/11 03:24:28;;;;;;;;;;;;;;;17.61;33.47;100802.16;5053172;28;20395;-64
2021/01/11 03:26:59;;;;;;;;;;;;;;;17.63;33.68;100802.75;5054771;28;19928;-64
2021/01/11 03:29:25;;;;;;;;;;;;;;;17.66;33.29;100796.78;5071912;28;19931;-65
2021/01/11 03:31:51;;;;;;;;;;;;;;;17.70;33.29;100797.91;5054936;28;20010;-66
2021/01/11 03:34:17;;;;;;;;;;;;;;;17.73;33.06;100794.66;5071149;28;19974;-65
2021/01/11 03:36:44;;;;;;;;;;;;;;;17.76;32.98;100794.16;5060609;28;20012;-64
2021/01/11 03:39:10;;;;;;;;;;;;;;;17.80;32.88;100794.50;5036792;28;20341;-65
2021/01/11 03:41:37;;;;;;;;;;;;;;;17.82;32.69;100806.97;5070626;28;19925;-66
2021/01/11 03:44:03;;;;;;;;;;;;;;;17.84;32.79;100804.78;5068800;28;19978;-64
2021/01/11 03:46:30;;;;;;;;;;;;;;;17.85;32.78;100813.91;5069942;28;19925;-65
2021/01/11 03:48:57;;;;;;;;;;;;;;;17.83;32.93;100808.63;5068939;28;19924;-65
2021/01/11 03:51:23;;;;;;;;;;;;;;;17.80;32.99;100800.84;5053453;28;19940;-65
2021/01/11 03:53:49;;;;;;;;;;;;;;;17.79;32.83;100795.59;5068988;28;20344;-64
2021/01/11 03:56:16;;;;;;;;;;;;;;;17.74;32.80;100794.41;5071240;28;19929;-65
2021/01/11 03:58:42;;;;;;;;;;;;;;;17.67;32.69;100784.66;5070007;28;19959;-65
2021/01/11 04:01:08;;;;;;;;;;;;;;;17.62;33.01;100788.13;5066805;28;19925;-64
2021/01/11 04:03:34;;;;;;;;;;;;;;;17.60;32.88;100779.28;5065377;28;19984;-65
2021/01/11 04:06:01;;;;;;;;;;;;;;;17.59;32.95;100776.75;5069168;28;19940;-67
2021/01/11 04:08:27;;;;;;;;;;;;;;;17.57;32.83;100773.41;5053209;28;19929;-65
2021/01/11 04:10:53;;;;;;;;;;;;;;;17.53;32.86;100778.59;5068254;28;19928;-65
2021/01/11 04:13:20;;;;;;;;;;;;;;;17.50;32.77;100784.59;5069594;28;20358;-64
2021/01/11 04:15:46;;;;;;;;;;;;;;;17.47;32.97;100775.97;5069770;28;19981;-65
2021/01/11 04:18:12;;;;;;;;;;;;;;;17.45;33.01;100780.91;5070805;28;19924;-66
2021/01/11 04:20:39;;;;;;;;;;;;;;;17.43;32.89;100781.97;5069266;28;19947;-65
2021/01/11 04:23:05;;;;;;;;;;;;;;;17.42;32.93;100782.22;5069367;28;20467;-65
2021/01/11 04:25:32;;;;;;;;;;;;;;;17.41;33.00;100778.63;5060964;28;20009;-64
2021/01/11 04:27:58;;;;;;;;;;;;;;;17.48;32.88;100777.66;5069395;28;19925;-65
2021/01/11 04:30:25;;;;;;;;;;;;;;;17.55;32.72;100772.81;5066675;28;19974;-64
2021/01/11 04:32:52;;;;;;;;;;;;;;;17.60;32.58;100786.69;5069342;28;20402;-64
2021/01/11 04:35:18;;;;;;;;;;;;;;;17.64;32.56;100777.69;5068403;28;19935;-65
2021/01/11 04:37:45;;;;;;;;;;;;;;;17.68;32.50;100773.34;5067672;28;19959;-66
2021/01/11 04:40:11;;;;;;;;;;;;;;;17.72;32.32;100773.69;5052636;28;19925;-65
2021/01/11 04:42:43;;;;;;;;;;;;;;;17.72;32.17;100771.78;5069313;28;20016;-65
2021/01/11 04:45:10;;;;;;;;;;;;;;;17.72;32.02;100769.00;5069304;28;20356;-66
2021/01/11 04:47:36;;;;;;;;;;;;;;;17.73;32.12;100773.44;5069383;28;19928;-65
2021/01/11 04:50:03;;;;;;;;;;;;;;;17.73;32.03;100762.41;5069144;28;19963;-64
2021/01/11 04:52:29;;;;;;;;;;;;;;;17.77;32.08;100764.69;5052631;28;20015;-64
2021/01/11 04:54:56;;;;;;;;;;;;;;;17.72;31.85;100758.00;5050053;28;19963;-65
2021/01/11 04:57:22;;;;;;;;;;;;;;;17.69;31.82;100752.97;5052479;28;20019;-65
2021/01/11 04:59:52;;;;;;;;;;;;;;;17.66;32.17;100756.25;5070379;28;19924;-66
2021/01/11 05:02:22;;;;;;;;;;;;;;;17.62;32.04;100744.03;5066052;28;20435;-66
2021/01/11 05:04:48;;;;;;;;;;;;;;;17.61;32.07;100749.78;5053065;28;19935;-65
2021/01/11 05:07:21;;;;;;;;;;;;;;;17.57;32.16;100751.38;5067358;28;19931;-66
2021/01/11 05:09:47;;;;;;;;;;;;;;;17.54;32.15;100751.84;5069541;28;20306;-64
2021/01/11 05:12:14;;;;;;;;;;;;;;;17.52;32.20;100754.03;5069837;28;19925;-64
2021/01/11 05:14:43;;;;;;;;;;;;;;;17.49;32.25;100752.59;5069415;28;19930;-66
2021/01/11 05:17:13;;;;;;;;;;;;;;;17.48;32.22;100755.59;5068916;28;19924;-65
2021/01/11 05:19:39;;;;;;;;;;;;;;;17.46;32.26;100749.50;5068801;28;19925;-67
2021/01/11 05:22:09;;;;;;;;;;;;;;;17.43;32.36;100742.56;5068952;28;19928;-66
2021/01/11 05:24:36;;;;;;;;;;;;;;;17.42;32.18;100741.72;5069611;28;20019;-65
2021/01/11 05:27:06;;;;;;;;;;;;;;;17.45;32.22;100734.06;5069054;28;19929;-65
2021/01/11 05:29:33;;;;;;;;;;;;;;;17.49;32.09;100737.97;5068718;28;20449;-65
2021/01/11 05:32:00;;;;;;;;;;;;;;;17.53;32.00;100739.16;5069053;28;19931;-65
2021/01/11 05:34:45;;;;;;;;;;;;;;;17.56;31.79;100733.16;5068763;28;19977;-65
2021/01/11 05:37:30;;;;;;;;;;;;;;;17.61;31.85;100734.09;5067307;28;19925;-67
2021/01/11 05:40:10;;;;;;;;;;;;;;;17.67;31.71;100743.31;5069567;28;20378;-64
2021/01/11 05:42:38;;;;;;;;;;;;;;;17.67;31.69;100733.09;5066251;28;19931;-66
2021/01/11 05:45:08;;;;;;;;;;;;;;;17.72;31.32;100735.09;5069828;28;20096;-65
2021/01/11 05:47:34;;;;;;;;;;;;;;;17.72;31.54;100735.09;5069452;28;19924;-66
2021/01/11 05:50:07;;;;;;;;;;;;;;;17.72;31.52;100737.84;5087485;28;19924;-65
2021/01/11 05:52:33;;;;;;;;;;;;;;;17.69;31.24;100730.91;5052511;28;19932;-64
2021/01/11 05:55:01;;;;;;;;;;;;;;;17.69;31.35;100735.59;5069761;28;19924;-65
2021/01/11 05:57:29;;;;;;;;;;;;;;;17.66;31.48;100734.19;5068087;28;19951;-65
2021/01/11 05:59:55;;;;;;;;;;;;;;;17.66;30.90;100725.09;5068964;28;20102;-65
2021/01/11 06:02:21;;;;;;;;;;;;;;;17.59;30.33;100729.91;5068101;28;19933;-66
2021/01/11 06:04:48;;;;;;;;;;;;;;;17.52;30.51;100734.72;5079723;28;19952;-65
2021/01/11 06:07:14;;;;;;;;;;;;;;;17.47;30.32;100735.47;5068485;28;19924;-65
2021/01/11 06:09:40;;;;;;;;;;;;;;;17.42;30.33;100743.66;5073270;28;19925;-65
2021/01/11 06:12:07;;;;;;;;;;;;;;;17.35;30.36;100734.69;5071736;28;20390;-65
2021/01/11 06:14:34;;;;;;;;;;;;;;;17.32;30.36;100751.75;5072080;28;19925;-64
2021/01/11 06:17:00;;;;;;;;;;;;;;;17.27;30.45;100743.38;5071756;28;19925;-64
2021/01/11 06:19:27;;;;;;;;;;;;;;;17.25;30.46;100740.88;5071614;28;19924;-65
2021/01/11 06:21:53;;;;;;;;;;;;;;;17.22;30.39;100738.63;5071674;28;19928;-64
2021/01/11 06:24:19;;;;;;;;;;;;;;;17.19;30.57;100741.84;5071786;28;19924;-64
2021/01/11 06:26:45;;;;;;;;;;;;;;;17.23;30.56;100755.97;5071621;28;20118;-66
2021/01/11 06:29:31;;;;;;;;;;;;;;;17.19;30.38;100750.13;5071637;28;19924;-64
2021/01/11 06:32:15;;;;;;;;;;;;;;;17.19;30.46;100736.34;5071455;28;19931;-65
2021/01/11 06:34:41;;;;;;;;;;;;;;;17.22;30.53;100749.63;5071704;28;19932;-65
2021/01/11 06:37:20;;;;;;;;;;;;;;;17.26;30.43;100741.72;5069769;28;20406;-65
2021/01/11 06:39:46;;;;;;;;;;;;;;;17.28;30.24;100753.31;5055078;28;19931;-65
2021/01/11 06:42:13;;;;;;;;;;;;;;;17.30;30.15;100742.91;5072640;28;19924;-65
2021/01/11 06:44:40;;;;;;;;;;;;;;;17.30;30.23;100742.91;5054949;28;19928;-64
2021/01/11 06:47:08;;;;;;;;;;;;;;;17.27;30.10;100746.97;5055109;28;20020;-64
2021/01/11 06:49:35;;;;;;;;;;;;;;;17.25;30.12;100740.88;5071824;28;19924;-64
2021/01/11 06:52:09;;;;;;;;;;;;;;;17.21;30.00;100739.69;5072842;28;20302;-63
2021/01/11 06:54:39;;;;;;;;;;;;;;;17.18;29.84;100736.59;5071259;28;19925;-65
2021/01/11 06:57:06;;;;;;;;;;;;;;;17.16;29.91;100741.50;5071005;28;19925;-65
2021/01/11 06:59:33;;;;;;;;;;;;;;;17.14;29.91;100736.25;5071008;28;20023;-65
2021/01/11 07:01:59;;;;;;;;;;;;;;;17.11;29.96;100733.97;5071384;28;19925;-64
2021/01/11 07:04:36;;;;;;;;;;;;;;;17.10;30.04;100729.56;5070549;28;19967;-64
2021/01/11 07:07:02;;;;;;;;;;;;;;;17.06;29.98;100725.63;5065308;28;20395;-65
2021/01/11 07:09:29;;;;;;;;;;;;;;;17.03;30.05;100731.63;5044351;28;19948;-66
2021/01/11 07:12:01;;;;;;;;;;;;;;;17.01;30.34;100722.75;5046935;28;19955;-65
2021/01/11 07:14:28;;;;;;;;;;;;;;;16.99;30.28;100724.94;5046011;28;19925;-65
2021/01/11 07:16:56;;;;;;;;;;;;;;;16.99;30.30;100716.66;5074848;28;19925;-65
2021/01/11 07:19:22;;;;;;;;;;;;;;;16.97;30.13;100716.09;5050716;28;19925;-65
2021/01/11 07:21:49;;;;;;;;;;;;;;;16.99;30.14;100708.41;5071045;28;19931;-64
2021/01/11 07:24:16;;;;;;;;;;;;;;;17.04;29.92;100716.75;5062121;28;19977;-64
2021/01/11 07:26:42;;;;;;;;;;;;;;;17.09;29.85;100717.72;5081961;22;19931;-56
2021/01/11 07:29:13;;;;;;;;;;;;;;;17.14;29.88;100722.47;5040494;28;20424;-58
2021/01/11 07:31:40;;;;;;;;;;;;;;;17.21;29.75;100720.41;5032657;28;19925;-57
2021/01/11 07:34:07;;;;;;;;;;;;;;;17.27;29.51;100716.69;5050143;28;20019;-57
2021/01/11 07:36:34;;;;;;;;;;;;;;;17.32;29.44;100716.78;5065679;28;19924;-57
2021/01/11 07:39:06;;;;;;;;;;;;;;;17.40;29.40;100716.34;5080168;28;20007;-58
2021/01/11 07:41:33;;;;;;;;;;;;;;;17.46;29.08;100713.69;5072462;28;19960;-57
2021/01/11 07:44:14;;;;;;;;;;;;;;;17.49;29.33;100718.69;5072083;28;20378;-58
2021/01/11 07:46:40;;;;;;;;;;;;;;;17.52;29.22;100718.19;5071913;28;19924;-56
2021/01/11 07:49:10;;;;;;;;;;;;;;;17.54;29.18;100718.78;5072014;28;19931;-58
2021/01/11 07:51:36;;;;;;;;;;;;;;;17.63;28.99;100725.56;5071981;28;20002;-57
2021/01/11 07:54:16;;;;;;;;;;;;;;;17.73;29.03;100722.97;5070430;28;19967;-57
2021/01/11 07:56:42;;;;;;;;;;;;;;;17.77;28.94;100717.81;5072273;28;19924;-58
2021/01/11 07:59:08;;;;;;;;;;;;;;;17.93;29.15;100723.31;5076658;28;19991;-58
2021/01/11 08:01:36;;;;;;;;;;;;;;;18.13;28.74;100719.19;5083030;28;19924;-61
2021/01/11 08:04:03;;;;;;;;;;;;;;;18.26;28.42;100708.63;5066565;28;19925;-57
2021/01/11 08:06:29;;;;;;;;;;;;;;;18.41;28.06;100702.47;5053434;28;19931;-57
2021/01/11 08:08:55;;;;;;;;;;;;;;;18.57;27.98;100709.88;5054048;28;19940;-56
2021/01/11 08:11:22;;;;;;;;;;;;;;;18.70;27.41;100709.53;5067912;28;19929;-57
2021/01/11 08:13:48;;;;;;;;;;;;;;;18.85;27.30;100705.25;5065806;28;19925;-56
2021/01/11 08:16:14;;;;;;;;;;;;;;;19.02;26.95;100706.03;5070101;28;20477;-58
2021/01/11 08:18:41;;;;;;;;;;;;;;;19.19;26.60;100705.91;5070811;28;19931;-57
2021/01/11 08:21:08;;;;;;;;;;;;;;;19.33;26.33;100708.00;5071968;28;19935;-57
2021/01/11 08:23:34;;;;;;;;;;;;;;;19.45;26.40;100704.22;5070351;28;19978;-58
2021/01/11 08:26:03;;;;;;;;;;;;;;;19.65;25.96;100708.03;5069181;28;20440;-57
2021/01/11 08:28:30;;;;;;;;;;;;;;;19.84;25.59;100708.44;5071449;28;19924;-58
2021/01/11 08:31:00;;;;;;;;;;;;;;;20.02;25.52;100710.81;5069908;28;19932;-57
2021/01/11 08:33:29;;;;;;;;;;;;;;;20.24;25.10;100696.81;5070538;28;19936;-59
2021/01/11 08:36:15;;;;;;;;;;;;;;;20.46;25.00;100705.00;5068091;28;19936;-57
2021/01/11 08:39:00;;;;;;;;;;;;;;;20.67;24.73;100701.22;5071596;28;19970;-58
2021/01/11 08:41:28;;;;;;;;;;;;;;;21.00;24.09;100701.88;5071196;28;20455;-58
2021/01/11 08:43:54;;;;;;;;;;;;;;;21.17;23.85;100699.69;5071449;28;19924;-57
2021/01/11 08:46:20;;;;;;;;;;;;;;;21.42;23.53;100706.44;5067030;28;19933;-58
2021/01/11 08:48:47;;;;;;;;;;;;;;;21.57;23.07;100709.19;5060435;28;19925;-57
2021/01/11 08:51:25;;;;;;;;;;;;;;;21.58;23.62;100710.84;5071493;28;19924;-58
2021/01/11 08:53:51;;;;;;;;;;;;;;;21.40;23.86;100709.47;5067176;28;20341;-57
2021/01/11 08:56:26;;;;;;;;;;;;;;;21.07;23.81;100716.31;5067876;28;21271;-59
2021/01/11 08:58:53;;;;;;;;;;;;;;;20.70;24.35;100713.69;5071297;28;19924;-58
2021/01/11 09:01:25;;;;;;;;;;;;;;;20.46;24.58;100713.28;5075069;28;19950;-58
2021/01/11 09:03:54;;;;;;;;;;;;;;;20.30;25.12;100722.59;5082515;28;19925;-58
2021/01/11 09:06:35;;;;;;;;;;;;;;;20.24;24.93;100723.66;5065188;28;20046;-58
2021/01/11 09:09:15;;;;;;;;;;;;;;;20.31;24.82;100724.28;5073611;28;19925;-58
2021/01/11 09:11:42;;;;;;;;;;;;;;;20.33;24.52;100727.59;5071042;28;19925;-60
2021/01/11 09:14:10;;;;;;;;;;;;;;;20.34;24.76;100729.28;5070903;28;19924;-58
2021/01/11 09:16:37;;;;;;;;;;;;;;;21.05;24.11;100726.84;5070949;28;19978;-57
2021/01/11 09:19:24;;;;;;;;;;;;;;;21.56;23.31;100733.31;5070823;28;19925;-58
2021/01/11 09:21:57;;;;;;;;;;;;;;;21.79;22.82;100733.91;5070825;28;20020;-58
2021/01/11 09:24:23;;;;;;;;;;;;;;;21.49;23.24;100727.22;5062595;28;20011;-58
2021/01/11 09:26:51;;;;;;;;;;;;;;;20.91;23.64;100731.22;5066779;28;19924;-58
2021/01/11 09:29:18;;;;;;;;;;;;;;;20.45;24.05;100738.47;5069382;28;19934;-58
2021/01/11 09:31:44;;;;;;;;;;;;;;;20.31;24.62;100729.81;5071117;28;19924;-58
2021/01/11 09:34:10;;;;;;;;;;;;;;;20.21;24.75;100729.75;5071147;28;19935;-58
2021/01/11 09:36:37;;;;;;;;;;;;;;;19.89;24.96;100727.84;5061666;28;19929;-57
2021/01/11 09:39:04;;;;;;;;;;;;;;;19.61;25.47;100737.31;5069459;28;19925;-58
2021/01/11 09:41:30;;;;;;;;;;;;;;;19.47;25.82;100730.50;5071594;28;20015;-58
2021/01/11 09:43:56;;;;;;;;;;;;;;;19.35;25.84;100727.94;5074593;28;20389;-58
2021/01/11 09:46:23;;;;;;;;;;;;;;;19.23;25.93;100732.78;5075141;28;19931;-58
2021/01/11 09:48:49;;;;;;;;;;;;;;;19.17;26.16;100730.19;5073491;28;19930;-58
2021/01/11 09:51:16;;;;;;;;;;;;;;;19.15;26.19;100738.75;5074571;28;20382;-58
2021/01/11 09:53:42;;;;;;;;;;;;;;;19.12;26.05;100735.66;5070849;28;19955;-57
2021/01/11 09:56:08;;;;;;;;;;;;;;;18.93;26.21;100740.72;5069739;28;19931;-58
2021/01/11 09:58:34;;;;;;;;;;;;;;;18.85;26.24;100743.94;5073003;28;19935;-57
2021/01/11 10:01:00;;;;;;;;;;;;;;;18.73;26.44;100742.13;5074475;28;19924;-57
2021/01/11 10:03:27;;;;;;;;;;;;;;;18.67;26.46;100743.19;5074148;28;19932;-58
2021/01/11 10:05:56;;;;;;;;;;;;;;;18.62;26.49;100742.28;5069147;28;20451;-57
2021/01/11 10:08:22;;;;;;;;;;;;;;;18.58;26.50;100732.81;5070650;28;19925;-59
2021/01/11 10:10:49;;;;;;;;;;;;;;;18.50;26.53;100719.44;5074280;28;20366;-57
2021/01/11 10:13:15;;;;;;;;;;;;;;;18.45;26.58;100717.44;5073328;28;19959;-58
2021/01/11 10:15:41;;;;;;;;;;;;;;;18.57;26.46;100718.16;5074530;28;19963;-58
2021/01/11 10:18:08;;;;;;;;;;;;;;;18.87;26.08;100703.09;5076110;28;19930;-58
2021/01/11 10:20:34;;;;;;;;;;;;;;;19.33;25.29;100696.94;5087096;28;19924;-58
2021/01/11 10:23:00;;;;;;;;;;;;;;;19.61;24.79;100695.00;5079122;28;20011;-57
2021/01/11 10:25:26;;;;;;;;;;;;;;;19.53;25.10;100696.31;5067103;28;20327;-57
2021/01/11 10:27:54;;;;;;;;;;;;;;;19.45;25.20;100693.16;5079799;28;19952;-58
2021/01/11 10:30:21;;;;;;;;;;;;;;;19.57;25.14;100685.56;5077898;28;19925;-57
2021/01/11 10:32:47;;;;;;;;;;;;;;;19.77;25.00;100690.41;5079245;28;19936;-57
2021/01/11 10:35:13;;;;;;;;;;;;;;;20.71;23.69;100680.19;5075055;28;20011;-57
2021/01/11 10:37:41;;;;;;;;;;;;;;;21.05;23.04;100674.19;5068704;28;19967;-58
2021/01/11 10:40:07;;;;;;;;;;;;;;;20.54;23.74;100685.09;5080025;28;19929;-57
2021/01/11 10:42:33;;;;;;;;;;;;;;;19.99;24.27;100678.13;5079663;28;19925;-57
2021/01/11 10:45:00;;;;;;;;;;;;;;;19.51;25.05;100676.38;5077471;28;19925;-58
2021/01/11 10:47:26;;;;;;;;;;;;;;;19.16;25.41;100671.34;5074288;28;19974;-59
2021/01/11 10:49:52;;;;;;;;;;;;;;;19.00;25.67;100664.00;5074296;28;19924;-58
2021/01/11 10:52:18;;;;;;;;;;;;;;;18.89;25.90;100653.94;5073779;28;19929;-57
2021/01/11 10:54:45;;;;;;;;;;;;;;;18.78;26.06;100650.22;5065977;28;20058;-57
2021/01/11 10:57:11;;;;;;;;;;;;;;;18.70;26.15;100651.56;5067674;28;20023;-58
2021/01/11 10:59:37;;;;;;;;;;;;;;;18.62;26.17;100640.97;5049334;28;19936;-58
2021/01/11 11:02:04;;;;;;;;;;;;;;;18.55;26.20;100634.75;5072810;28;19925;-56
2021/01/11 11:04:31;;;;;;;;;;;;;;;18.52;26.13;100635.28;5073436;28;20421;-57
2021/01/11 11:06:57;;;;;;;;;;;;;;;18.45;26.38;100629.13;5064290;28;19963;-58
2021/01/11 11:09:23;;;;;;;;;;;;;;;18.38;26.43;100634.00;5073319;28;19929;-58
2021/01/11 11:11:50;;;;;;;;;;;;;;;18.31;26.41;100617.66;5073195;28;20390;-58
2021/01/11 11:14:17;;;;;;;;;;;;;;;18.33;26.43;100617.41;5073310;28;19982;-57
2021/01/11 11:16:43;;;;;;;;;;;;;;;18.34;26.42;100616.31;5071617;28;19967;-57
2021/01/11 11:19:10;;;;;;;;;;;;;;;18.34;26.28;100608.03;5073158;28;19964;-57
2021/01/11 11:21:36;;;;;;;;;;;;;;;18.28;26.26;100600.78;5077265;28;19924;-57
2021/01/11 11:24:15;;;;;;;;;;;;;;;18.29;26.58;100594.16;5076649;28;20179;-58
2021/01/11 11:26:41;;;;;;;;;;;;;;;18.33;26.80;100598.91;5068990;28;19925;-58
2021/01/11 11:29:08;;;;;;;;;;;;;;;18.37;26.66;100602.81;5073026;28;19935;-58
2021/01/11 11:31:36;;;;;;;;;;;;;;;18.41;26.59;100606.72;5072990;28;19949;-57
2021/01/11 11:34:05;;;;;;;;;;;;;;;18.45;26.71;100611.72;5072576;28;20287;-56
2021/01/11 11:36:31;;;;;;;;;;;;;;;18.48;26.55;100600.16;5064370;28;20357;-57
2021/01/11 11:38:58;;;;;;;;;;;;;;;18.47;26.62;100587.47;5070605;28;20022;-57
2021/01/11 11:41:25;;;;;;;;;;;;;;;18.44;26.67;100575.00;5072589;28;19925;-58
2021/01/11 11:43:51;;;;;;;;;;;;;;;18.40;26.83;100579.38;5072387;28;19970;-58
2021/01/11 11:46:18;;;;;;;;;;;;;;;18.36;26.94;100575.50;5072364;28;19924;-58
2021/01/11 11:48:44;;;;;;;;;;;;;;;18.32;27.05;100569.66;5072090;28;20425;-58
2021/01/11 11:51:10;;;;;;;;;;;;;;;18.27;26.93;100571.50;5072601;28;19948;-57
2021/01/11 11:53:37;;;;;;;;;;;;;;;18.24;26.94;100566.50;5070217;28;20374;-56
2021/01/11 11:56:04;;;;;;;;;;;;;;;18.14;27.11;100569.97;5067198;28;20015;-56
2021/01/11 11:58:30;;;;;;;;;;;;;;;18.08;27.02;100557.19;5072238;28;19925;-56
2021/01/11 12:00:56;;;;;;;;;;;;;;;17.95;27.05;100547.41;5071078;28;19924;-59
2021/01/11 12:03:23;;;;;;;;;;;;;;;17.88;27.23;100545.94;5071759;28;19950;-57
2021/01/11 12:05:50;;;;;;;;;;;;;;;17.81;27.30;100545.28;5074933;28;19962;-57
2021/01/11 12:08:16;;;;;;;;;;;;;;;17.74;27.28;100539.94;5080092;28;20351;-56
2021/01/11 12:10:42;;;;;;;;;;;;;;;17.69;27.33;100539.88;5072551;28;19931;-58
2021/01/11 12:13:08;;;;;;;;;;;;;;;17.65;27.48;100541.50;5071937;28;19925;-58
2021/01/11 12:15:36;;;;;;;;;;;;;;;17.63;27.77;100538.13;5071849;28;20506;-58
2021/01/11 12:18:02;;;;;;;;;;;;;;;17.59;27.69;100536.97;5071459;28;20382;-57
2021/01/11 12:20:29;;;;;;;;;;;;;;;17.59;27.65;100528.69;5071609;28;19928;-58
2021/01/11 12:22:55;;;;;;;;;;;;;;;17.59;27.73;100531.44;5070931;28;20062;-57
2021/01/11 12:25:22;;;;;;;;;;;;;;;17.60;27.60;100525.69;5059394;28;19931;-58
2021/01/11 12:27:49;;;;;;;;;;;;;;;17.62;27.68;100514.41;5071554;28;20019;-57
2021/01/11 12:30:15;;;;;;;;;;;;;;;17.66;27.73;100521.13;5071693;28;19924;-58
2021/01/11 12:32:46;;;;;;;;;;;;;;;17.71;27.60;100513.72;5073004;28;19925;-60
2021/01/11 12:35:13;;;;;;;;;;;;;;;17.78;27.60;100513.53;5083114;28;19925;-57
2021/01/11 12:37:39;;;;;;;;;;;;;;;17.85;27.56;100508.66;5061427;28;19925;-59
2021/01/11 12:40:06;;;;;;;;;;;;;;;17.87;27.55;100500.97;5047200;28;19931;-57